createdAt,value
2023-05-05T00:01:54.207Z,10.30
2023-05-05T00:04:22.819Z,10.20
2023-05-05T00:06:50.706Z,10.20
2023-05-05T00:09:18.344Z,10.20
2023-05-05T00:11:45.435Z,10.10
2023-05-05T00:14:12.627Z,10.10
2023-05-05T00:16:40.076Z,10.10
2023-05-05T00:19:07.228Z,10.00
2023-05-05T00:21:34.314Z,10.00
2023-05-05T00:24:01.424Z,10.00
2023-05-05T00:26:28.676Z,9.70
2023-05-05T00:28:56.115Z,9.80
2023-05-05T00:31:23.794Z,9.80
2023-05-05T00:33:50.992Z,9.80
2023-05-05T00:36:18.453Z,9.80
2023-05-05T00:38:45.536Z,9.70
2023-05-05T00:41:12.727Z,9.70
2023-05-05T00:43:39.843Z,9.70
2023-05-05T00:46:25.341Z,9.60
2023-05-05T00:48:53.509Z,9.60
2023-05-05T00:51:22.771Z,9.50
2023-05-05T00:53:50.711Z,9.50
2023-05-05T00:56:19.776Z,9.40
2023-05-05T00:58:47.331Z,9.30
2023-05-05T01:01:15.535Z,9.20
2023-05-05T01:03:42.853Z,9.20
2023-05-05T01:06:33.626Z,9.10
2023-05-05T01:09:37.757Z,9.10
2023-05-05T01:12:28.779Z,9.10
2023-05-05T01:15:44.213Z,9.10
2023-05-05T01:18:49.912Z,9.00
2023-05-05T01:21:45.710Z,9.10
2023-05-05T01:24:46.643Z,9.00
2023-05-05T01:27:29.701Z,9.00
2023-05-05T01:30:30.693Z,8.90
2023-05-05T01:33:26.176Z,8.90
2023-05-05T01:36:01.547Z,8.90
2023-05-05T01:38:40.497Z,8.80
2023-05-05T01:41:16.100Z,8.80
2023-05-05T01:43:49.902Z,8.80
2023-05-05T01:46:19.634Z,8.80
2023-05-05T01:48:49.000Z,8.70
2023-05-05T01:51:20.379Z,8.70
2023-05-05T01:53:48.372Z,8.70
2023-05-05T01:56:17.333Z,8.70
2023-05-05T01:58:47.387Z,8.70
2023-05-05T02:01:17.088Z,8.70
2023-05-05T02:03:47.410Z,8.60
2023-05-05T02:06:18.159Z,8.60
2023-05-05T02:08:47.255Z,8.60
2023-05-05T02:11:15.827Z,8.60
2023-05-05T02:13:44.876Z,8.60
2023-05-05T02:16:17.423Z,8.50
2023-05-05T02:18:47.479Z,8.50
2023-05-05T02:21:18.157Z,8.30
2023-05-05T02:23:51.862Z,8.30
2023-05-05T02:26:23.295Z,8.30
2023-05-05T02:28:58.733Z,8.20
2023-05-05T02:31:29.584Z,8.20
2023-05-05T02:34:01.557Z,8.20
2023-05-05T02:36:38.716Z,8.20
2023-05-05T02:39:25.990Z,8.20
2023-05-05T02:41:56.147Z,8.10
2023-05-05T02:44:29.119Z,8.20
2023-05-05T02:46:58.056Z,8.10
2023-05-05T02:49:25.788Z,8.10
2023-05-05T02:51:58.151Z,8.10
2023-05-05T02:54:28.669Z,8.20
2023-05-05T02:56:58.738Z,8.20
2023-05-05T03:00:16.222Z,8.20
2023-05-05T03:02:47.275Z,8.20
2023-05-05T03:05:24.785Z,8.20
2023-05-05T03:08:10.834Z,8.20
2023-05-05T03:11:08.121Z,8.20
2023-05-05T03:13:44.102Z,8.10
2023-05-05T03:16:19.039Z,8.20
2023-05-05T03:18:51.164Z,8.20
2023-05-05T03:21:19.659Z,8.20
2023-05-05T03:23:46.799Z,8.20
2023-05-05T03:26:19.780Z,8.20
2023-05-05T03:28:47.353Z,8.20
2023-05-05T03:31:26.007Z,8.10
2023-05-05T03:33:56.751Z,8.10
2023-05-05T03:36:29.629Z,8.10
2023-05-05T03:38:58.881Z,8.10
2023-05-05T03:41:29.586Z,8.10
2023-05-05T03:43:56.742Z,8.10
2023-05-05T03:46:24.441Z,8.10
2023-05-05T03:48:51.807Z,8.10
2023-05-05T03:51:19.002Z,8.10
2023-05-05T03:53:46.686Z,8.10
2023-05-05T03:56:13.870Z,8.10
2023-05-05T03:58:41.314Z,8.10
2023-05-05T04:01:08.673Z,8.10
2023-05-05T04:03:36.090Z,8.10
2023-05-05T04:06:03.367Z,8.10
2023-05-05T04:08:31.965Z,8.10
2023-05-05T04:10:59.432Z,8.10
2023-05-05T04:13:26.778Z,8.10
2023-05-05T04:15:55.304Z,8.00
2023-05-05T04:18:23.295Z,8.10
2023-05-05T04:20:51.151Z,8.10
2023-05-05T04:23:18.463Z,8.00
2023-05-05T04:25:47.435Z,8.10
2023-05-05T04:28:15.068Z,8.00
2023-05-05T04:30:42.310Z,8.10
2023-05-05T04:33:09.888Z,8.00
2023-05-05T04:35:37.037Z,8.00
2023-05-05T04:38:04.274Z,8.10
2023-05-05T04:40:31.715Z,8.10
2023-05-05T04:42:59.334Z,8.10
2023-05-05T04:45:26.775Z,8.00
2023-05-05T04:47:53.913Z,8.10
2023-05-05T04:50:21.798Z,8.10
2023-05-05T04:52:49.802Z,8.10
2023-05-05T04:55:17.974Z,8.20
2023-05-05T04:57:45.131Z,8.20
2023-05-05T05:00:12.917Z,8.20
2023-05-05T05:02:40.069Z,8.30
2023-05-05T05:05:07.960Z,8.30
2023-05-05T05:07:35.111Z,8.30
2023-05-05T05:10:03.737Z,8.40
2023-05-05T05:12:32.043Z,8.40
2023-05-05T05:14:59.213Z,8.40
2023-05-05T05:17:26.940Z,8.40
2023-05-05T05:19:55.457Z,8.50
2023-05-05T05:22:22.998Z,8.50
2023-05-05T05:24:50.134Z,8.60
2023-05-05T05:27:17.522Z,8.60
2023-05-05T05:29:47.204Z,8.60
2023-05-05T05:32:14.520Z,8.70
2023-05-05T05:34:41.715Z,8.80
2023-05-05T05:37:09.951Z,8.70
2023-05-05T05:39:37.724Z,8.80
2023-05-05T05:42:05.095Z,8.80
2023-05-05T05:44:32.879Z,8.90
2023-05-05T05:46:59.955Z,8.90
2023-05-05T05:49:27.435Z,9.00
2023-05-05T05:51:55.865Z,9.00
2023-05-05T05:54:23.145Z,9.10
2023-05-05T05:56:50.592Z,9.20
2023-05-05T05:59:17.743Z,9.20
2023-05-05T06:01:44.848Z,9.30
2023-05-05T06:04:13.267Z,9.40
2023-05-05T06:06:41.166Z,9.50
2023-05-05T06:09:08.420Z,9.50
2023-05-05T06:11:37.075Z,9.60
2023-05-05T06:14:04.233Z,9.70
2023-05-05T06:16:31.586Z,9.80
2023-05-05T06:19:02.337Z,9.80
2023-05-05T06:21:29.888Z,9.90
2023-05-05T06:23:57.063Z,10.00
2023-05-05T06:26:24.473Z,10.00
2023-05-05T06:28:51.575Z,10.10
2023-05-05T06:31:18.726Z,10.20
2023-05-05T06:33:46.097Z,10.30
2023-05-05T06:36:13.244Z,10.40
2023-05-05T06:38:40.425Z,10.50
2023-05-05T06:41:07.505Z,10.60
2023-05-05T06:43:35.193Z,10.60
2023-05-05T06:46:07.371Z,10.60
2023-05-05T06:48:34.497Z,10.70
2023-05-05T06:51:02.340Z,10.80
2023-05-05T06:53:29.571Z,10.90
2023-05-05T06:55:56.663Z,11.00
2023-05-05T06:58:23.806Z,11.10
2023-05-05T07:00:50.995Z,11.10
2023-05-05T07:03:18.325Z,11.30
2023-05-05T07:05:45.516Z,11.30
2023-05-05T07:08:13.478Z,11.40
2023-05-05T07:10:40.576Z,11.50
2023-05-05T07:13:08.428Z,11.60
2023-05-05T07:15:35.816Z,11.60
2023-05-05T07:18:03.049Z,11.70
2023-05-05T07:20:30.281Z,11.90
2023-05-05T07:22:57.372Z,12.00
2023-05-05T07:25:24.455Z,12.10
2023-05-05T07:27:51.783Z,12.20
2023-05-05T07:30:19.471Z,12.30
2023-05-05T07:32:47.229Z,12.50
2023-05-05T07:35:14.576Z,12.60
2023-05-05T07:37:41.638Z,12.70
2023-05-05T07:40:09.709Z,12.90
2023-05-05T07:42:37.180Z,13.00
2023-05-05T07:45:06.120Z,13.10
2023-05-05T07:47:33.309Z,13.10
2023-05-05T07:50:01.238Z,13.30
2023-05-05T07:52:44.089Z,13.50
2023-05-05T07:55:13.739Z,13.50
2023-05-05T07:57:41.017Z,13.60
2023-05-05T08:00:09.597Z,13.80
2023-05-05T08:02:40.132Z,13.80
2023-05-05T08:05:08.329Z,13.90
2023-05-05T08:07:38.251Z,14.00
2023-05-05T08:10:06.048Z,14.10
2023-05-05T08:12:33.250Z,14.30
2023-05-05T08:15:00.461Z,14.30
2023-05-05T08:17:27.679Z,14.40
2023-05-05T08:19:54.923Z,14.60
2023-05-05T08:22:22.658Z,14.60
2023-05-05T08:24:49.829Z,14.80
2023-05-05T08:27:16.915Z,14.90
2023-05-05T08:29:44.030Z,15.00
2023-05-05T08:32:11.280Z,15.20
2023-05-05T08:34:38.333Z,15.30
2023-05-05T08:37:05.423Z,15.50
2023-05-05T08:39:32.495Z,15.60
2023-05-05T08:41:59.648Z,15.80
2023-05-05T08:44:28.944Z,15.90
2023-05-05T08:46:56.839Z,16.00
2023-05-05T08:49:25.793Z,16.20
2023-05-05T08:51:54.645Z,16.20
2023-05-05T08:54:27.623Z,16.20
2023-05-05T08:56:58.258Z,16.40
2023-05-05T09:01:54.408Z,16.60
2023-05-05T09:04:21.955Z,17.10
2023-05-05T09:06:49.394Z,16.70
2023-05-05T09:09:17.535Z,16.80
2023-05-05T09:11:46.130Z,16.80
2023-05-05T09:14:13.189Z,16.90
2023-05-05T09:16:44.371Z,17.00
2023-05-05T09:19:11.642Z,17.10
2023-05-05T09:21:49.357Z,17.20
2023-05-05T09:24:16.674Z,17.30
2023-05-05T09:26:46.461Z,17.00
2023-05-05T09:29:21.849Z,17.40
2023-05-05T09:32:08.525Z,17.30
2023-05-05T09:39:33.430Z,17.90
2023-05-05T09:44:37.968Z,17.70
2023-05-05T09:47:09.517Z,17.80
2023-05-05T09:49:42.174Z,18.10
2023-05-05T09:52:16.777Z,17.90
2023-05-05T09:54:44.608Z,17.80
2023-05-05T09:57:32.651Z,18.10
2023-05-05T10:00:02.562Z,18.30
2023-05-05T10:02:35.163Z,18.50
2023-05-05T10:05:14.196Z,18.40
2023-05-05T10:07:44.371Z,18.00
2023-05-05T10:10:15.268Z,18.40
2023-05-05T10:12:43.172Z,18.50
2023-05-05T10:15:12.092Z,18.30
2023-05-05T10:22:53.530Z,18.80
2023-05-05T10:25:35.297Z,18.40
2023-05-05T10:28:06.894Z,19.00
2023-05-05T10:30:43.544Z,19.00
2023-05-05T10:33:31.722Z,19.20
2023-05-05T10:36:03.513Z,19.30
2023-05-05T10:38:31.831Z,19.10
2023-05-05T10:41:02.142Z,19.60
2023-05-05T10:43:31.477Z,19.70
2023-05-05T10:46:00.642Z,19.60
2023-05-05T10:49:12.486Z,19.70
2023-05-05T10:54:46.906Z,19.90
2023-05-05T10:57:18.754Z,20.00
2023-05-05T11:02:29.045Z,20.20
2023-05-05T11:05:18.261Z,20.00
2023-05-05T11:07:47.242Z,20.10
2023-05-05T11:10:16.492Z,20.40
2023-05-05T11:12:57.768Z,20.90
2023-05-05T11:15:30.719Z,20.70
2023-05-05T11:18:05.687Z,21.00
2023-05-05T11:20:39.497Z,20.30
2023-05-05T11:23:06.713Z,20.70
2023-05-05T11:25:37.199Z,21.20
2023-05-05T11:28:31.156Z,21.30
2023-05-05T11:31:00.844Z,21.40
2023-05-05T11:36:08.425Z,21.30
2023-05-05T11:38:57.170Z,21.80
2023-05-05T11:41:33.349Z,21.90
2023-05-05T11:44:15.350Z,22.10
2023-05-05T11:47:05.224Z,22.30
2023-05-05T11:49:35.851Z,22.50
2023-05-05T11:52:07.661Z,22.70
2023-05-05T11:54:41.974Z,22.80
2023-05-05T12:00:10.054Z,23.10
2023-05-05T12:07:33.819Z,23.30
2023-05-05T12:12:38.617Z,23.40
2023-05-05T12:15:07.638Z,24.10
2023-05-05T12:17:46.135Z,23.60
2023-05-05T12:20:14.034Z,23.80
2023-05-05T12:30:17.411Z,23.20
2023-05-05T12:40:51.841Z,24.20
2023-05-05T12:43:35.423Z,24.30
2023-05-05T12:46:12.802Z,24.40
2023-05-05T12:48:46.372Z,24.40
2023-05-05T12:51:21.357Z,24.30
2023-05-05T12:54:02.164Z,24.50
2023-05-05T12:56:34.344Z,25.00
2023-05-05T12:59:07.733Z,24.40
2023-05-05T13:01:37.048Z,24.30
2023-05-05T13:04:13.161Z,24.30
2023-05-05T13:06:47.174Z,24.20
2023-05-05T13:09:30.496Z,24.20
2023-05-05T13:16:53.359Z,24.40
2023-05-05T13:31:41.443Z,24.70
2023-05-05T14:03:42.189Z,24.80
2023-05-05T14:08:36.974Z,24.10
2023-05-05T14:25:50.992Z,25.50
2023-05-05T14:28:18.106Z,25.50
2023-05-05T14:30:45.299Z,25.40
2023-05-05T14:33:12.476Z,25.40
2023-05-05T14:35:39.695Z,25.10
2023-05-05T14:38:06.808Z,25.20
2023-05-05T14:40:33.967Z,25.10
2023-05-05T14:43:01.149Z,24.90
2023-05-05T14:45:29.628Z,24.70
2023-05-05T14:47:57.397Z,25.30
2023-05-05T14:52:52.209Z,24.40
2023-05-05T14:55:19.535Z,24.50
2023-05-05T17:05:53.540Z,21.90
2023-05-05T17:25:35.979Z,21.50
2023-05-05T17:30:30.929Z,21.50
2023-05-05T17:32:58.043Z,22.00
2023-05-05T17:40:20.273Z,20.90
2023-05-05T17:42:47.418Z,20.60
2023-05-05T17:50:11.230Z,18.60
2023-05-05T17:55:08.347Z,18.20
2023-05-05T17:57:35.783Z,18.20
2023-05-05T18:00:07.275Z,18.20
2023-05-05T18:10:08.311Z,17.90
2023-05-05T18:12:35.779Z,17.60
2023-05-05T18:15:05.643Z,17.80
2023-05-05T18:17:32.847Z,17.90
2023-05-05T18:27:27.509Z,17.50
2023-05-05T18:29:55.262Z,17.70
2023-05-05T18:34:51.019Z,18.00
2023-05-05T18:39:46.114Z,17.00
2023-05-05T18:42:13.273Z,17.10
2023-05-05T18:47:08.760Z,17.10
2023-05-05T18:49:35.966Z,17.40
2023-05-05T18:59:26.524Z,17.70
2023-05-05T19:01:53.646Z,16.80
2023-05-05T19:06:58.562Z,16.50
2023-05-05T19:09:25.685Z,16.50
2023-05-05T19:11:52.816Z,16.20
2023-05-05T19:14:19.948Z,16.30
2023-05-05T19:19:14.936Z,16.70
2023-05-05T19:24:10.174Z,16.60
2023-05-05T19:26:37.525Z,16.50
2023-05-05T19:34:03.844Z,16.60
2023-05-05T19:36:32.383Z,16.60
2023-05-05T19:39:04.822Z,16.60
2023-05-05T19:41:32.710Z,16.50
2023-05-05T19:46:27.773Z,16.30
2023-05-05T19:48:54.915Z,16.00
2023-05-05T19:51:22.259Z,16.40
2023-05-05T19:59:00.827Z,16.80
2023-05-05T20:01:29.331Z,16.90
2023-05-05T20:03:57.435Z,16.40
2023-05-05T20:08:54.500Z,15.80
2023-05-05T20:11:22.347Z,16.60
2023-05-05T20:13:50.847Z,14.30
2023-05-05T20:16:19.304Z,16.20
2023-05-05T20:21:15.322Z,15.80
2023-05-05T20:23:46.237Z,15.80
2023-05-05T20:26:13.831Z,16.30
2023-05-05T20:31:14.605Z,15.80
2023-05-05T20:33:41.818Z,15.60
2023-05-05T20:41:04.381Z,15.80
2023-05-05T20:45:59.138Z,15.50
2023-05-05T20:48:26.214Z,15.70
2023-05-05T20:50:53.343Z,16.40
2023-05-05T20:53:21.056Z,15.50
2023-05-05T21:05:41.352Z,15.90
2023-05-05T21:10:36.760Z,15.90
2023-05-05T21:20:26.813Z,15.50
2023-05-05T21:30:18.752Z,15.10
2023-05-05T21:32:45.976Z,15.50
2023-05-05T21:40:13.312Z,15.50
2023-05-05T21:42:42.321Z,14.90
2023-05-05T21:45:11.729Z,15.90
2023-05-05T21:47:39.276Z,13.70
2023-05-05T21:50:07.474Z,15.30
2023-05-05T21:59:58.436Z,15.30
2023-05-05T22:07:21.075Z,15.10
2023-05-05T22:09:48.349Z,14.90
2023-05-05T22:17:11.501Z,15.40
2023-05-05T22:19:38.559Z,14.70
2023-05-05T22:24:33.071Z,14.80
2023-05-05T22:29:29.067Z,14.70
2023-05-05T22:34:23.968Z,15.30
2023-05-05T22:36:51.046Z,14.70
2023-05-05T22:39:18.732Z,15.20
2023-05-05T22:41:47.071Z,15.30
2023-05-05T22:44:14.331Z,15.10
2023-05-05T22:46:42.135Z,14.90
2023-05-05T22:56:32.500Z,14.80
2023-05-05T23:01:27.305Z,15.00
2023-05-05T23:03:54.600Z,14.90
2023-05-05T23:08:49.345Z,15.00
2023-05-05T23:16:11.761Z,15.20
2023-05-05T23:18:38.934Z,14.40
2023-05-05T23:21:06.253Z,14.30
2023-05-05T23:23:33.493Z,14.70
2023-05-05T23:28:28.089Z,14.60
2023-05-05T23:38:18.169Z,14.60
2023-05-05T23:43:12.893Z,14.10
2023-05-05T23:45:40.975Z,15.00
2023-05-05T23:48:08.106Z,14.30
2023-05-05T23:50:35.293Z,14.40
2023-05-05T23:55:30.421Z,14.40
2023-05-05T23:57:57.535Z,14.60
